createdAt,value
2017-07-20T00:01:43.013Z,64.00
2017-07-20T00:04:09.412Z,63.60
2017-07-20T00:06:35.861Z,63.10
2017-07-20T00:09:02.315Z,63.10
2017-07-20T00:11:28.725Z,63.90
2017-07-20T00:13:55.131Z,64.20
2017-07-20T00:16:21.549Z,64.50
2017-07-20T00:18:47.961Z,64.70
2017-07-20T00:21:15.105Z,64.30
2017-07-20T00:23:41.500Z,64.20
2017-07-20T00:26:07.905Z,63.50
2017-07-20T00:28:34.277Z,63.20
2017-07-20T00:31:19.779Z,62.70
2017-07-20T00:33:46.928Z,63.30
2017-07-20T00:36:14.092Z,64.10
2017-07-20T00:38:40.484Z,63.20
2017-07-20T00:41:06.918Z,63.50
2017-07-20T00:43:33.333Z,63.70
2017-07-20T00:45:59.817Z,63.80
2017-07-20T00:48:26.956Z,65.00
2017-07-20T00:50:53.360Z,65.00
2017-07-20T00:53:19.753Z,65.60
2017-07-20T00:55:46.151Z,66.20
2017-07-20T00:58:12.609Z,66.50
2017-07-20T01:00:39.024Z,67.40
2017-07-20T01:03:05.473Z,68.50
2017-07-20T01:05:32.643Z,69.60
2017-07-20T01:07:59.074Z,69.50
2017-07-20T01:10:25.461Z,69.10
2017-07-20T01:12:51.940Z,68.60
2017-07-20T01:15:18.372Z,67.30
2017-07-20T01:17:44.777Z,66.80
2017-07-20T01:20:11.971Z,65.80
2017-07-20T01:22:38.445Z,65.80
2017-07-20T01:25:04.852Z,65.10
2017-07-20T01:27:31.246Z,65.90
2017-07-20T01:29:57.693Z,67.20
2017-07-20T01:32:24.128Z,66.70
2017-07-20T01:34:50.548Z,66.90
2017-07-20T01:37:16.988Z,66.90
2017-07-20T01:39:43.397Z,66.80
2017-07-20T01:42:10.581Z,65.80
2017-07-20T01:44:37.003Z,65.80
2017-07-20T01:47:03.441Z,65.30
2017-07-20T01:49:29.861Z,65.60
2017-07-20T01:51:56.303Z,66.20
2017-07-20T01:54:22.783Z,66.10
2017-07-20T01:56:49.222Z,66.00
2017-07-20T01:59:15.629Z,64.70
2017-07-20T02:01:42.086Z,65.70
2017-07-20T02:04:08.508Z,66.40
2017-07-20T02:06:34.956Z,68.10
2017-07-20T02:09:01.384Z,68.40
2017-07-20T02:11:27.822Z,68.70
2017-07-20T02:13:54.298Z,68.70
2017-07-20T02:16:20.751Z,68.40
2017-07-20T02:18:47.145Z,68.30
2017-07-20T02:21:14.301Z,65.90
2017-07-20T02:23:40.728Z,65.90
2017-07-20T02:26:07.865Z,66.10
2017-07-20T02:28:34.303Z,66.10
2017-07-20T02:31:00.695Z,65.50
2017-07-20T02:33:27.074Z,65.80
2017-07-20T02:35:54.276Z,65.70
2017-07-20T02:38:21.162Z,65.60
2017-07-20T02:40:48.318Z,65.50
2017-07-20T02:43:15.487Z,66.00
2017-07-20T02:45:41.930Z,66.00
2017-07-20T02:48:08.347Z,65.60
2017-07-20T02:50:34.769Z,66.50
2017-07-20T02:53:01.898Z,68.00
2017-07-20T02:55:28.305Z,68.00
2017-07-20T02:57:54.714Z,68.30
2017-07-20T03:00:21.192Z,67.50
2017-07-20T03:02:47.615Z,67.20
2017-07-20T03:05:14.004Z,66.70
2017-07-20T03:07:40.407Z,66.40
2017-07-20T03:10:07.566Z,67.00
2017-07-20T03:12:34.690Z,68.00
2017-07-20T03:15:01.115Z,67.30
2017-07-20T03:17:27.554Z,67.30
2017-07-20T03:19:53.977Z,67.20
2017-07-20T03:22:32.525Z,66.80
2017-07-20T03:24:59.674Z,66.60
2017-07-20T03:27:26.823Z,67.10
2017-07-20T03:29:53.985Z,68.00
2017-07-20T03:32:20.380Z,68.00
2017-07-20T03:34:46.789Z,69.00
2017-07-20T03:37:13.199Z,69.80
2017-07-20T03:39:39.618Z,70.40
2017-07-20T03:42:06.032Z,71.50
2017-07-20T03:44:33.209Z,72.70
2017-07-20T03:46:59.618Z,72.10
2017-07-20T03:49:27.153Z,72.70
2017-07-20T03:51:53.581Z,73.40
2017-07-20T03:54:19.993Z,72.10
2017-07-20T03:56:46.403Z,71.30
2017-07-20T03:59:13.099Z,70.30
2017-07-20T04:01:39.517Z,69.80
2017-07-20T04:04:05.943Z,69.10
2017-07-20T04:06:32.370Z,69.20
2017-07-20T04:08:58.781Z,68.40
2017-07-20T04:11:25.205Z,67.80
2017-07-20T04:13:51.591Z,68.70
2017-07-20T04:16:18.003Z,68.50
2017-07-20T04:18:44.445Z,69.70
2017-07-20T04:21:10.921Z,69.40
2017-07-20T04:23:38.083Z,69.50
2017-07-20T04:26:04.495Z,69.60
2017-07-20T04:28:31.653Z,69.00
2017-07-20T04:30:58.058Z,69.00
2017-07-20T04:33:24.471Z,68.70
2017-07-20T04:35:50.869Z,69.00
2017-07-20T04:38:17.304Z,69.30
2017-07-20T04:40:43.748Z,69.30
2017-07-20T04:43:10.133Z,69.50
2017-07-20T04:45:37.571Z,70.10
2017-07-20T04:48:03.965Z,70.10
2017-07-20T04:50:30.413Z,69.60
2017-07-20T04:52:56.828Z,69.30
2017-07-20T04:55:23.218Z,69.50
2017-07-20T04:57:49.613Z,69.90
2017-07-20T05:00:15.988Z,70.10
2017-07-20T05:02:43.117Z,69.60
2017-07-20T05:05:09.872Z,69.60
2017-07-20T05:07:37.019Z,70.00
2017-07-20T05:10:03.436Z,70.00
2017-07-20T05:12:29.920Z,70.00
2017-07-20T05:14:56.352Z,68.70
2017-07-20T05:17:22.793Z,68.60
2017-07-20T05:19:49.214Z,68.80
2017-07-20T05:22:16.019Z,68.40
2017-07-20T05:24:42.447Z,68.20
2017-07-20T05:27:08.858Z,69.10
2017-07-20T05:29:36.050Z,68.00
2017-07-20T05:32:03.192Z,68.20
2017-07-20T05:34:29.638Z,68.20
2017-07-20T05:36:56.846Z,68.20
2017-07-20T05:39:23.299Z,68.00
2017-07-20T05:41:49.714Z,67.90
2017-07-20T05:44:16.182Z,67.60
2017-07-20T05:46:43.332Z,67.40
2017-07-20T05:49:09.744Z,67.40
2017-07-20T05:51:36.133Z,66.70
2017-07-20T05:54:02.530Z,66.40
2017-07-20T05:56:29.686Z,65.70
2017-07-20T05:58:56.841Z,64.50
2017-07-20T06:01:23.270Z,64.50
2017-07-20T06:03:50.413Z,63.30
2017-07-20T06:06:17.549Z,62.70
2017-07-20T06:08:43.962Z,62.70
2017-07-20T06:11:10.389Z,61.40
2017-07-20T06:13:36.819Z,60.60
2017-07-20T06:16:03.239Z,59.00
2017-07-20T06:18:29.664Z,57.70
2017-07-20T06:20:56.066Z,55.60
2017-07-20T06:23:23.245Z,51.40
2017-07-20T06:25:49.690Z,51.30
2017-07-20T06:28:16.079Z,50.40
2017-07-20T06:30:43.252Z,48.80
2017-07-20T06:33:09.670Z,48.80
2017-07-20T06:35:36.840Z,48.80
2017-07-20T06:38:03.237Z,48.80
2017-07-20T06:40:29.661Z,48.10
2017-07-20T06:42:56.069Z,46.50
2017-07-20T06:45:22.454Z,45.10
2017-07-20T06:47:49.615Z,44.80
2017-07-20T06:50:15.985Z,44.80
2017-07-20T06:52:42.419Z,45.10
2017-07-20T06:55:08.829Z,43.80
2017-07-20T06:57:35.225Z,42.90
2017-07-20T07:00:02.409Z,45.30
2017-07-20T07:02:28.874Z,45.20
2017-07-20T07:04:55.308Z,44.90
2017-07-20T07:07:21.706Z,44.40
2017-07-20T07:09:48.095Z,43.80
2017-07-20T07:12:14.505Z,43.30
2017-07-20T07:14:40.958Z,43.00
2017-07-20T07:17:07.365Z,42.60
2017-07-20T07:19:33.778Z,42.10
2017-07-20T07:22:00.225Z,42.20
2017-07-20T07:24:26.693Z,41.60
2017-07-20T07:26:53.111Z,40.80
2017-07-20T07:29:19.864Z,40.60
2017-07-20T07:31:46.307Z,40.00
2017-07-20T07:34:13.452Z,42.50
2017-07-20T07:36:39.852Z,41.80
2017-07-20T07:39:06.253Z,42.00
2017-07-20T07:41:32.685Z,42.70
2017-07-20T07:43:59.112Z,42.40
2017-07-20T07:46:25.524Z,42.50
2017-07-20T07:48:52.670Z,41.70
2017-07-20T07:51:19.788Z,42.60
2017-07-20T07:53:46.158Z,42.30
2017-07-20T07:56:13.342Z,41.80
2017-07-20T07:58:39.782Z,41.80
2017-07-20T08:01:06.204Z,42.20
2017-07-20T08:03:32.578Z,42.10
2017-07-20T08:05:58.975Z,42.50
2017-07-20T08:08:25.380Z,42.70
2017-07-20T08:10:52.549Z,43.60
2017-07-20T08:13:18.948Z,43.60
2017-07-20T08:15:46.112Z,43.00
2017-07-20T08:18:13.264Z,41.90
2017-07-20T08:20:40.434Z,43.10
2017-07-20T08:23:06.862Z,43.10
2017-07-20T08:25:33.289Z,43.50
2017-07-20T08:27:59.724Z,43.20
2017-07-20T08:30:26.139Z,42.70
2017-07-20T08:32:53.302Z,42.30
2017-07-20T08:35:19.708Z,42.30
2017-07-20T08:37:46.100Z,42.30
2017-07-20T08:40:12.531Z,43.50
2017-07-20T08:42:39.013Z,41.30
2017-07-20T08:45:07.390Z,42.00
2017-07-20T08:47:41.115Z,42.00
2017-07-20T08:50:09.122Z,42.00
2017-07-20T08:55:16.616Z,41.40
2017-07-20T08:57:47.436Z,41.50
2017-07-20T09:00:14.824Z,42.10
2017-07-20T09:02:58.874Z,41.40
2017-07-20T09:05:33.293Z,41.40
2017-07-20T09:08:00.464Z,41.00
2017-07-20T09:10:29.885Z,40.50
2017-07-20T09:13:26.334Z,41.40
2017-07-20T09:15:58.125Z,38.90
2017-07-20T09:18:41.018Z,39.80
2017-07-20T09:21:08.169Z,38.70
2017-07-20T09:23:34.591Z,38.70
2017-07-20T09:26:01.683Z,39.00
2017-07-20T09:28:28.147Z,39.30
2017-07-20T09:30:54.581Z,39.80
2017-07-20T09:33:20.967Z,38.40
2017-07-20T09:35:47.367Z,38.00
2017-07-20T09:38:13.791Z,38.00
2017-07-20T09:40:40.172Z,37.60
2017-07-20T09:43:06.576Z,37.20
2017-07-20T09:45:33.003Z,37.60
2017-07-20T09:48:00.177Z,36.30
2017-07-20T09:50:26.580Z,36.20
2017-07-20T09:52:52.997Z,35.80
2017-07-20T09:55:19.411Z,35.10
2017-07-20T09:57:45.791Z,36.00
2017-07-20T10:00:12.916Z,32.80
2017-07-20T10:02:39.374Z,32.80
2017-07-20T10:05:06.506Z,35.00
2017-07-20T10:07:32.903Z,34.70
2017-07-20T10:09:59.306Z,34.40
2017-07-20T10:12:25.683Z,35.10
2017-07-20T10:14:52.080Z,34.30
2017-07-20T10:17:18.473Z,33.00
2017-07-20T10:19:44.893Z,33.00
2017-07-20T10:22:11.340Z,34.00
2017-07-20T10:24:37.740Z,34.10
2017-07-20T10:27:04.156Z,34.20
2017-07-20T10:29:30.560Z,34.80
2017-07-20T10:31:56.949Z,35.20
2017-07-20T10:34:23.360Z,35.30
2017-07-20T10:36:49.773Z,34.50
2017-07-20T10:39:16.170Z,34.80
2017-07-20T10:41:43.343Z,34.90
2017-07-20T10:44:09.746Z,34.40
2017-07-20T10:46:36.170Z,33.30
2017-07-20T10:49:02.597Z,32.90
2017-07-20T10:51:28.998Z,33.30
2017-07-20T10:53:55.421Z,33.30
2017-07-20T10:56:21.809Z,32.80
2017-07-20T10:58:48.221Z,32.80
2017-07-20T11:01:14.634Z,33.20
2017-07-20T11:03:41.008Z,32.00
2017-07-20T11:06:07.392Z,31.80
2017-07-20T11:08:33.826Z,31.80
2017-07-20T11:11:00.262Z,32.20
2017-07-20T11:13:26.660Z,31.50
2017-07-20T11:15:53.061Z,32.20
2017-07-20T11:18:19.485Z,32.00
2017-07-20T11:20:45.940Z,31.60
2017-07-20T11:23:12.373Z,31.50
2017-07-20T11:25:38.764Z,30.50
2017-07-20T11:28:05.152Z,30.00
2017-07-20T11:30:32.279Z,30.00
2017-07-20T11:32:58.645Z,30.00
2017-07-20T11:35:25.818Z,30.90
2017-07-20T11:37:52.328Z,30.90
2017-07-20T11:40:19.467Z,30.00
2017-07-20T11:42:45.874Z,30.00
2017-07-20T11:45:12.289Z,30.00
2017-07-20T11:47:38.703Z,29.70
2017-07-20T11:50:05.133Z,29.50
2017-07-20T11:52:31.521Z,29.40
2017-07-20T11:54:57.907Z,29.20
2017-07-20T11:57:24.333Z,29.30
2017-07-20T11:59:50.734Z,29.70
2017-07-20T12:02:17.852Z,29.90
2017-07-20T12:04:44.248Z,29.40
2017-07-20T12:07:10.676Z,29.60
2017-07-20T12:09:37.106Z,29.60
2017-07-20T12:12:04.366Z,29.40
2017-07-20T12:14:30.744Z,28.80
2017-07-20T12:16:57.133Z,28.80
2017-07-20T12:19:23.564Z,28.40
2017-07-20T12:21:49.970Z,29.00
2017-07-20T12:24:17.109Z,29.10
2017-07-20T12:26:43.488Z,28.60
2017-07-20T12:29:09.909Z,28.50
2017-07-20T12:31:36.310Z,28.30
2017-07-20T12:34:03.424Z,27.30
2017-07-20T12:36:29.816Z,27.30
2017-07-20T12:38:56.283Z,27.40
2017-07-20T12:41:22.691Z,27.00
2017-07-20T12:43:49.116Z,26.80
2017-07-20T12:46:15.535Z,27.00
2017-07-20T12:48:42.688Z,27.50
2017-07-20T12:51:09.853Z,27.20
2017-07-20T12:53:36.245Z,27.20
2017-07-20T12:58:38.268Z,27.10
2017-07-20T13:01:04.664Z,27.00
2017-07-20T13:03:31.068Z,26.50
2017-07-20T13:05:57.487Z,26.50
2017-07-20T13:08:23.903Z,26.80
2017-07-20T13:10:50.332Z,26.70
2017-07-20T13:13:16.751Z,26.40
2017-07-20T13:15:58.866Z,26.40
2017-07-20T13:18:25.332Z,26.40
2017-07-20T13:20:51.753Z,26.50
2017-07-20T13:23:18.166Z,26.60
2017-07-20T13:25:44.652Z,27.20
2017-07-20T13:28:11.060Z,27.70
2017-07-20T13:30:37.480Z,28.40
2017-07-20T13:33:03.901Z,28.40
2017-07-20T13:35:30.300Z,28.40
2017-07-20T13:37:56.703Z,28.00
2017-07-20T13:40:23.088Z,27.90
2017-07-20T13:42:49.545Z,28.40
2017-07-20T13:45:15.960Z,28.20
2017-07-20T13:47:42.400Z,28.10
2017-07-20T13:50:08.791Z,27.20
2017-07-20T13:52:35.211Z,27.20
2017-07-20T13:55:01.638Z,27.60
2017-07-20T13:57:28.044Z,27.60
2017-07-20T13:59:54.429Z,26.80
2017-07-20T14:02:20.842Z,26.80
2017-07-20T14:04:47.276Z,27.00
2017-07-20T14:07:13.673Z,27.00
2017-07-20T14:09:40.089Z,27.30
2017-07-20T14:12:06.472Z,26.20
2017-07-20T14:14:32.880Z,26.80
2017-07-20T14:16:59.337Z,26.70
2017-07-20T14:19:25.732Z,26.90
2017-07-20T14:21:52.166Z,26.80
2017-07-20T14:24:18.570Z,26.60
2017-07-20T14:26:45.745Z,27.70
2017-07-20T14:29:12.179Z,27.60
2017-07-20T14:31:38.572Z,27.90
2017-07-20T14:34:05.041Z,27.90
2017-07-20T14:36:31.429Z,28.20
2017-07-20T14:38:57.841Z,27.90
2017-07-20T14:41:24.308Z,28.50
2017-07-20T14:43:50.751Z,28.80
2017-07-20T14:46:17.896Z,28.70
2017-07-20T14:48:44.299Z,28.70
2017-07-20T14:51:10.679Z,28.20
2017-07-20T14:53:37.053Z,28.40
2017-07-20T14:56:04.346Z,28.20
2017-07-20T14:58:30.814Z,28.30
2017-07-20T15:00:57.211Z,28.40
2017-07-20T15:03:24.356Z,28.30
2017-07-20T15:05:50.740Z,28.30
2017-07-20T15:08:17.121Z,29.50
2017-07-20T15:10:43.507Z,29.10
2017-07-20T15:13:09.910Z,29.90
2017-07-20T15:15:37.036Z,29.50
2017-07-20T15:18:04.257Z,29.50
2017-07-20T15:20:30.680Z,29.50
2017-07-20T15:22:57.092Z,29.70
2017-07-20T15:25:23.489Z,30.40
2017-07-20T15:27:50.607Z,30.10
2017-07-20T15:30:17.000Z,29.70
2017-07-20T15:32:43.379Z,29.70
2017-07-20T15:35:09.821Z,29.00
2017-07-20T15:37:36.236Z,29.00
2017-07-20T15:40:02.700Z,30.00
2017-07-20T15:42:29.187Z,30.00
2017-07-20T15:44:55.610Z,30.00
2017-07-20T15:47:22.033Z,30.30
2017-07-20T15:49:48.433Z,30.80
2017-07-20T15:52:14.810Z,31.10
2017-07-20T15:54:41.232Z,31.80
2017-07-20T15:57:07.694Z,32.90
2017-07-20T15:59:34.077Z,36.30
2017-07-20T16:02:01.243Z,44.80
2017-07-20T16:04:27.623Z,44.80
2017-07-20T16:06:54.073Z,50.90
2017-07-20T16:09:21.280Z,58.40
2017-07-20T16:11:47.720Z,58.30
2017-07-20T16:14:14.133Z,60.90
2017-07-20T16:16:40.496Z,59.60
2017-07-20T16:19:06.908Z,61.70
2017-07-20T16:21:33.295Z,62.40
2017-07-20T16:23:59.704Z,62.90
2017-07-20T16:26:26.144Z,63.20
2017-07-20T16:28:53.279Z,64.30
2017-07-20T16:31:19.675Z,64.30
2017-07-20T16:33:46.085Z,65.20
2017-07-20T16:36:13.255Z,61.90
2017-07-20T16:38:39.674Z,61.90
2017-07-20T16:41:06.820Z,61.30
2017-07-20T16:43:33.961Z,61.00
2017-07-20T16:46:00.414Z,60.90
2017-07-20T16:48:26.836Z,61.70
2017-07-20T16:50:54.317Z,63.50
2017-07-20T16:53:20.724Z,63.30
2017-07-20T16:55:47.899Z,63.70
2017-07-20T16:58:14.373Z,63.70
2017-07-20T17:00:40.788Z,63.90
2017-07-20T17:03:07.200Z,63.20
2017-07-20T17:05:33.609Z,63.90
2017-07-20T17:08:00.739Z,65.40
2017-07-20T17:10:27.133Z,64.80
2017-07-20T17:12:53.524Z,65.10
2017-07-20T17:15:20.941Z,62.10
2017-07-20T17:17:47.400Z,62.10
2017-07-20T17:20:13.796Z,61.90
2017-07-20T17:22:40.188Z,61.90
2017-07-20T17:25:07.335Z,63.80
2017-07-20T17:27:34.487Z,63.10
2017-07-20T17:30:01.628Z,63.60
2017-07-20T17:32:28.085Z,63.50
2017-07-20T17:34:54.481Z,63.50
2017-07-20T17:37:20.885Z,63.20
2017-07-20T17:39:47.347Z,63.10
2017-07-20T17:42:13.780Z,61.80
2017-07-20T17:44:40.206Z,62.30
2017-07-20T17:47:06.634Z,61.90
2017-07-20T17:49:33.030Z,61.90
2017-07-20T17:51:59.421Z,61.70
2017-07-20T17:54:26.653Z,61.50
2017-07-20T17:56:53.491Z,61.40
2017-07-20T17:59:19.975Z,60.70
2017-07-20T18:01:46.427Z,60.70
2017-07-20T18:04:12.860Z,60.80
2017-07-20T18:06:39.277Z,60.20
2017-07-20T18:09:05.743Z,60.60
2017-07-20T18:11:32.174Z,61.80
2017-07-20T18:13:58.539Z,62.40
2017-07-20T18:16:24.922Z,62.10
2017-07-20T18:18:51.365Z,61.80
2017-07-20T18:21:17.786Z,61.60
2017-07-20T18:23:44.184Z,62.20
2017-07-20T18:26:11.361Z,61.10
2017-07-20T18:28:37.800Z,60.50
2017-07-20T18:31:05.124Z,61.90
2017-07-20T18:33:32.256Z,65.10
2017-07-20T18:35:59.428Z,65.60
2017-07-20T18:38:26.619Z,66.40
2017-07-20T18:40:53.051Z,66.30
2017-07-20T18:43:19.467Z,62.40
2017-07-20T18:45:45.901Z,59.60
2017-07-20T18:48:12.330Z,58.80
2017-07-20T18:50:38.725Z,59.30
2017-07-20T18:53:05.889Z,62.20
2017-07-20T18:55:32.321Z,61.90
2017-07-20T18:57:59.459Z,64.50
2017-07-20T19:00:25.944Z,64.40
2017-07-20T19:02:53.233Z,66.40
2017-07-20T19:05:19.641Z,69.00
2017-07-20T19:07:46.038Z,70.40
2017-07-20T19:10:12.450Z,71.30
2017-07-20T19:12:39.593Z,74.10
2017-07-20T19:15:06.037Z,74.10
2017-07-20T19:17:32.421Z,74.80
2017-07-20T19:19:58.825Z,75.30
2017-07-20T19:22:25.231Z,76.10
2017-07-20T19:24:52.392Z,76.70
2017-07-20T19:27:18.809Z,76.70
2017-07-20T19:29:45.994Z,77.20
2017-07-20T19:32:12.406Z,77.00
2017-07-20T19:34:38.830Z,77.20
2017-07-20T19:37:05.987Z,76.50
2017-07-20T19:39:33.136Z,76.20
2017-07-20T19:42:00.284Z,76.50
2017-07-20T19:44:27.422Z,77.40
2017-07-20T19:46:53.824Z,76.60
2017-07-20T19:49:20.205Z,76.50
2017-07-20T19:51:47.339Z,77.00
2017-07-20T19:54:13.809Z,77.00
2017-07-20T19:56:40.255Z,77.00
2017-07-20T19:59:06.658Z,76.90
2017-07-20T20:01:33.831Z,77.80
2017-07-20T20:04:00.232Z,77.70
2017-07-20T20:06:27.381Z,77.60
2017-07-20T20:08:54.547Z,78.10
2017-07-20T20:11:21.004Z,78.10
2017-07-20T20:13:47.414Z,78.20
2017-07-20T20:16:14.554Z,78.30
2017-07-20T20:18:41.690Z,78.50
2017-07-20T20:21:08.105Z,78.50
2017-07-20T20:23:34.525Z,78.70
2017-07-20T20:26:00.921Z,78.30
2017-07-20T20:28:27.337Z,78.50
2017-07-20T20:30:54.498Z,78.60
2017-07-20T20:33:20.914Z,79.10
2017-07-20T20:35:48.049Z,78.40
2017-07-20T20:38:14.449Z,78.40
2017-07-20T20:40:40.852Z,78.30
2017-07-20T20:43:07.235Z,78.40
2017-07-20T20:45:33.710Z,78.70
2017-07-20T20:48:00.865Z,78.60
2017-07-20T20:50:27.238Z,78.50
2017-07-20T20:52:53.657Z,78.70
2017-07-20T20:55:20.114Z,78.90
2017-07-20T20:57:46.515Z,78.80
2017-07-20T21:00:12.928Z,78.60
2017-07-20T21:02:39.441Z,78.60
2017-07-20T21:05:06.691Z,78.80
2017-07-20T21:07:33.842Z,78.40
2017-07-20T21:10:00.250Z,78.40
2017-07-20T21:12:26.668Z,78.30
2017-07-20T21:14:53.069Z,78.40
2017-07-20T21:17:19.474Z,78.70
2017-07-20T21:19:45.865Z,78.30
2017-07-20T21:22:12.283Z,78.50
2017-07-20T21:24:38.699Z,78.40
2017-07-20T21:27:05.086Z,78.10
2017-07-20T21:29:32.246Z,78.00
2017-07-20T21:31:59.392Z,78.60
2017-07-20T21:34:26.574Z,78.70
2017-07-20T21:36:52.990Z,78.00
2017-07-20T21:39:20.149Z,78.60
2017-07-20T21:41:46.520Z,78.50
2017-07-20T21:44:12.920Z,78.90
2017-07-20T21:46:39.339Z,78.10
2017-07-20T21:49:05.757Z,78.50
2017-07-20T21:51:32.890Z,78.30
2017-07-20T21:53:59.373Z,78.30
2017-07-20T21:56:25.790Z,78.40
2017-07-20T21:58:52.201Z,77.70
2017-07-20T22:01:18.624Z,77.60
2017-07-20T22:03:45.071Z,78.10
2017-07-20T22:06:11.489Z,77.90
2017-07-20T22:08:37.893Z,77.70
2017-07-20T22:11:04.308Z,77.90
2017-07-20T22:13:30.774Z,77.90
2017-07-20T22:15:57.154Z,78.10
2017-07-20T22:18:24.291Z,78.10
2017-07-20T22:20:51.439Z,78.50
2017-07-20T22:23:18.601Z,78.00
2017-07-20T22:25:45.014Z,77.90
2017-07-20T22:28:11.435Z,77.90
2017-07-20T22:30:37.844Z,77.70
2017-07-20T22:33:04.244Z,77.80
2017-07-20T22:35:30.669Z,77.80
2017-07-20T22:37:57.799Z,77.40
2017-07-20T22:40:25.007Z,76.80
2017-07-20T22:42:51.407Z,77.40
2017-07-20T22:45:17.826Z,77.50
2017-07-20T22:47:44.218Z,76.90
2017-07-20T22:50:10.613Z,77.60
2017-07-20T22:52:37.043Z,77.50
2017-07-20T22:55:03.434Z,77.30
2017-07-20T22:57:29.821Z,77.40
2017-07-20T22:59:56.242Z,77.70
2017-07-20T23:02:22.645Z,76.90
2017-07-20T23:04:49.795Z,77.40
2017-07-20T23:07:16.980Z,77.40
2017-07-20T23:09:43.408Z,77.40
2017-07-20T23:12:09.846Z,77.60
2017-07-20T23:14:36.253Z,77.60
2017-07-20T23:17:02.704Z,77.60
2017-07-20T23:19:29.118Z,77.60
2017-07-20T23:21:56.269Z,77.40
2017-07-20T23:24:23.449Z,77.60
2017-07-20T23:26:49.880Z,77.40
2017-07-20T23:29:16.292Z,77.40
2017-07-20T23:31:42.729Z,77.30
2017-07-20T23:34:09.117Z,77.40
2017-07-20T23:36:35.512Z,77.40
2017-07-20T23:39:02.406Z,77.40
2017-07-20T23:41:28.814Z,77.20
2017-07-20T23:43:55.209Z,77.20
2017-07-20T23:46:21.614Z,76.80
2017-07-20T23:48:48.785Z,77.60
2017-07-20T23:51:15.235Z,77.60
2017-07-20T23:53:41.625Z,77.70
2017-07-20T23:56:08.769Z,77.40
2017-07-20T23:58:35.174Z,77.60
